createdAt,value
2022-10-05T00:01:33.730Z,99249.55
2022-10-05T00:04:19.945Z,99247.73
2022-10-05T00:06:57.067Z,99249.04
2022-10-05T00:09:25.660Z,99249.41
2022-10-05T00:11:53.722Z,99251.13
2022-10-05T00:14:28.002Z,99254.75
2022-10-05T00:16:58.252Z,99255.22
2022-10-05T00:19:34.527Z,99257.13
2022-10-05T00:22:16.464Z,99264.57
2022-10-05T00:24:45.597Z,99274.55
2022-10-05T00:27:19.292Z,99281.72
2022-10-05T00:29:49.662Z,99287.27
2022-10-05T00:32:18.267Z,99290.84
2022-10-05T00:34:47.635Z,99292.07
2022-10-05T00:37:35.624Z,99290.37
2022-10-05T00:40:14.511Z,99305.89
2022-10-05T00:43:19.632Z,99311.33
2022-10-05T00:46:25.030Z,99312.77
2022-10-05T00:49:07.080Z,99314.96
2022-10-05T00:51:41.305Z,99316.30
2022-10-05T00:54:19.144Z,99317.61
2022-10-05T00:57:08.904Z,99323.50
2022-10-05T00:59:46.156Z,99326.54
2022-10-05T01:02:46.281Z,99324.75
2022-10-05T01:05:43.251Z,99322.05
2022-10-05T01:08:52.331Z,99317.23
2022-10-05T01:11:37.039Z,99320.14
2022-10-05T01:14:34.339Z,99321.08
2022-10-05T01:17:17.351Z,99316.05
2022-10-05T01:20:15.964Z,99314.73
2022-10-05T01:22:46.792Z,99314.74
2022-10-05T01:25:32.664Z,99314.25
2022-10-05T01:28:06.762Z,99319.28
2022-10-05T01:30:59.239Z,99325.06
2022-10-05T01:33:33.765Z,99329.05
2022-10-05T01:36:07.700Z,99331.09
2022-10-05T01:38:55.119Z,99331.86
2022-10-05T01:41:30.693Z,99337.71
2022-10-05T01:44:35.979Z,99338.52
2022-10-05T01:47:17.826Z,99340.95
2022-10-05T01:50:02.993Z,99349.45
2022-10-05T01:52:48.017Z,99348.42
2022-10-05T01:55:39.065Z,99341.45
2022-10-05T01:58:10.195Z,99342.75
2022-10-05T02:01:07.201Z,99349.61
2022-10-05T02:03:44.685Z,99352.10
2022-10-05T02:06:22.528Z,99357.19
2022-10-05T02:08:58.925Z,99362.92
2022-10-05T02:11:27.118Z,99365.83
2022-10-05T02:14:12.331Z,99368.80
2022-10-05T02:16:51.215Z,99369.66
2022-10-05T02:19:41.329Z,99372.25
2022-10-05T02:22:20.288Z,99373.38
2022-10-05T02:24:54.713Z,99380.17
2022-10-05T02:27:29.720Z,99383.84
2022-10-05T02:30:03.305Z,99387.73
2022-10-05T02:32:41.307Z,99391.23
2022-10-05T02:35:15.838Z,99391.13
2022-10-05T02:37:57.624Z,99398.44
2022-10-05T02:40:57.410Z,99401.44
2022-10-05T02:43:39.110Z,99404.98
2022-10-05T02:46:26.080Z,99408.04
2022-10-05T02:49:13.832Z,99408.41
2022-10-05T02:51:58.753Z,99415.19
2022-10-05T02:54:57.162Z,99414.52
2022-10-05T02:57:31.540Z,99414.16
2022-10-05T03:00:07.511Z,99419.67
2022-10-05T03:02:52.674Z,99424.36
2022-10-05T03:05:36.056Z,99424.70
2022-10-05T03:08:37.013Z,99422.74
2022-10-05T03:11:32.209Z,99421.34
2022-10-05T03:14:15.774Z,99420.45
2022-10-05T03:17:07.038Z,99424.37
2022-10-05T03:20:04.371Z,99423.96
2022-10-05T03:22:42.005Z,99422.84
2022-10-05T03:25:31.334Z,99419.56
2022-10-05T03:28:33.344Z,99417.80
2022-10-05T03:31:02.729Z,99419.38
2022-10-05T03:33:40.937Z,99420.15
2022-10-05T03:36:38.059Z,99422.81
2022-10-05T03:39:34.633Z,99428.63
2022-10-05T03:42:29.323Z,99434.54
2022-10-05T03:44:58.201Z,99432.48
2022-10-05T03:47:34.145Z,99434.58
2022-10-05T03:50:12.163Z,99441.25
2022-10-05T03:53:04.916Z,99442.02
2022-10-05T03:55:55.728Z,99448.39
2022-10-05T03:58:34.774Z,99451.82
2022-10-05T04:01:10.753Z,99451.52
2022-10-05T04:03:47.286Z,99449.40
2022-10-05T04:06:33.654Z,99456.93
2022-10-05T04:09:15.773Z,99468.02
2022-10-05T04:11:55.359Z,99475.16
2022-10-05T04:15:00.483Z,99481.74
2022-10-05T04:17:37.959Z,99490.22
2022-10-05T04:20:25.148Z,99492.91
2022-10-05T04:23:01.621Z,99493.30
2022-10-05T04:25:36.442Z,99493.16
2022-10-05T04:28:21.629Z,99492.82
2022-10-05T04:30:53.300Z,99496.50
2022-10-05T04:33:22.351Z,99497.19
2022-10-05T04:36:14.252Z,99495.83
2022-10-05T04:39:15.473Z,99492.10
2022-10-05T04:42:14.591Z,99493.20
2022-10-05T04:44:46.089Z,99498.55
2022-10-05T04:47:14.443Z,99506.63
2022-10-05T04:49:51.770Z,99508.59
2022-10-05T04:52:20.316Z,99509.52
2022-10-05T04:55:31.003Z,99509.18
2022-10-05T04:58:41.400Z,99511.20
2022-10-05T05:02:00.294Z,99512.48
2022-10-05T05:05:03.832Z,99514.61
2022-10-05T05:07:55.952Z,99518.69
2022-10-05T05:11:03.255Z,99522.42
2022-10-05T05:14:14.236Z,99530.88
2022-10-05T05:16:44.830Z,99538.98
2022-10-05T05:19:42.124Z,99545.11
2022-10-05T05:22:44.938Z,99548.56
2022-10-05T05:25:59.818Z,99556.28
2022-10-05T05:28:51.816Z,99552.27
2022-10-05T05:31:41.596Z,99547.49
2022-10-05T05:34:30.420Z,99547.88
2022-10-05T05:37:09.473Z,99547.57
2022-10-05T05:40:07.994Z,99551.70
2022-10-05T05:43:20.580Z,99555.83
2022-10-05T05:45:56.451Z,99558.01
2022-10-05T05:48:34.856Z,99553.98
2022-10-05T05:51:12.955Z,99560.98
2022-10-05T05:53:46.880Z,99569.39
2022-10-05T05:56:27.331Z,99569.38
2022-10-05T05:59:44.864Z,99573.96
2022-10-05T06:02:22.080Z,99573.23
2022-10-05T06:05:30.685Z,99578.64
2022-10-05T06:08:07.849Z,99581.98
2022-10-05T06:10:47.415Z,99584.83
2022-10-05T06:13:33.097Z,99577.79
2022-10-05T06:16:07.182Z,99578.92
2022-10-05T06:18:38.462Z,99587.11
2022-10-05T06:21:24.660Z,99591.94
2022-10-05T06:24:11.619Z,99591.19
2022-10-05T06:26:39.853Z,99588.77
2022-10-05T06:29:21.516Z,99586.27
2022-10-05T06:32:16.746Z,99596.19
2022-10-05T06:34:56.109Z,99602.17
2022-10-05T06:38:02.293Z,99607.98
2022-10-05T06:40:30.682Z,99609.35
2022-10-05T06:43:01.801Z,99611.84
2022-10-05T06:45:59.395Z,99615.77
2022-10-05T06:49:14.813Z,99615.77
2022-10-05T06:52:20.438Z,99613.95
2022-10-05T06:54:52.630Z,99612.14
2022-10-05T06:57:33.580Z,99614.68
2022-10-05T07:00:21.227Z,99615.91
2022-10-05T07:03:02.901Z,99618.34
2022-10-05T07:05:52.572Z,99616.98
2022-10-05T07:09:02.111Z,99617.02
2022-10-05T07:12:17.460Z,99610.53
2022-10-05T07:14:52.163Z,99605.59
2022-10-05T07:17:52.007Z,99604.25
2022-10-05T07:20:43.555Z,99605.35
2022-10-05T07:23:37.038Z,99606.90
2022-10-05T07:26:40.819Z,99603.61
2022-10-05T07:29:33.463Z,99599.36
2022-10-05T07:32:25.707Z,99603.23
2022-10-05T07:36:02.914Z,99605.11
2022-10-05T07:39:59.750Z,99616.29
2022-10-05T07:43:40.257Z,99622.91
2022-10-05T07:46:21.466Z,99625.03
2022-10-05T07:49:00.348Z,99627.91
2022-10-05T07:51:45.434Z,99632.34
2022-10-05T07:54:21.763Z,99633.63
2022-10-05T07:57:00.326Z,99632.27
2022-10-05T08:00:32.859Z,99630.08
2022-10-05T08:03:52.414Z,99635.04
2022-10-05T08:10:45.236Z,99639.97
2022-10-05T08:13:28.751Z,99644.32
2022-10-05T08:16:14.898Z,99645.27
2022-10-05T08:19:02.011Z,99646.11
2022-10-05T08:21:52.454Z,99645.73
2022-10-05T08:24:26.218Z,99650.55
2022-10-05T08:27:07.461Z,99654.29
2022-10-05T08:29:42.316Z,99649.96
2022-10-05T08:32:34.920Z,99645.21
2022-10-05T08:35:21.412Z,99639.88
2022-10-05T08:37:51.282Z,99639.68
2022-10-05T08:40:27.134Z,99638.70
2022-10-05T08:43:16.376Z,99639.14
2022-10-05T08:46:04.143Z,99640.46
2022-10-05T08:48:49.533Z,99640.23
2022-10-05T08:51:49.703Z,99639.57
2022-10-05T08:54:29.442Z,99643.11
2022-10-05T08:57:41.321Z,99647.05
2022-10-05T09:00:18.531Z,99647.52
2022-10-05T09:03:23.886Z,99650.58
2022-10-05T09:06:12.754Z,99650.45
2022-10-05T09:09:06.492Z,99649.73
2022-10-05T09:12:02.281Z,99648.55
2022-10-05T09:15:24.271Z,99641.73
2022-10-05T09:18:27.926Z,99641.31
2022-10-05T09:21:06.172Z,99643.31
2022-10-05T09:23:45.135Z,99637.67
2022-10-05T09:26:41.135Z,99634.89
2022-10-05T09:29:25.051Z,99636.59
2022-10-05T09:32:22.113Z,99635.67
2022-10-05T09:35:34.639Z,99632.21
2022-10-05T09:38:31.761Z,99631.42
2022-10-05T09:41:17.937Z,99627.83
2022-10-05T09:44:08.603Z,99628.95
2022-10-05T09:46:52.817Z,99632.53
2022-10-05T09:49:33.607Z,99626.16
2022-10-05T09:52:47.057Z,99628.89
2022-10-05T09:55:50.722Z,99626.38
2022-10-05T09:58:35.670Z,99620.39
2022-10-05T10:01:34.353Z,99619.58
2022-10-05T10:04:22.444Z,99614.29
2022-10-05T10:07:13.543Z,99618.96
2022-10-05T10:10:06.704Z,99608.77
2022-10-05T10:13:14.515Z,99603.45
2022-10-05T10:16:13.484Z,99600.99
2022-10-05T10:19:12.956Z,99594.18
2022-10-05T10:22:13.431Z,99590.02
2022-10-05T10:25:21.541Z,99587.17
2022-10-05T10:28:20.209Z,99588.02
2022-10-05T10:31:22.343Z,99584.95
2022-10-05T10:34:08.767Z,99580.10
2022-10-05T10:37:32.587Z,99574.08
2022-10-05T10:40:33.705Z,99572.55
2022-10-05T10:43:30.220Z,99577.59
2022-10-05T10:46:16.524Z,99580.63
2022-10-05T10:48:55.877Z,99586.59
2022-10-05T10:52:05.488Z,99591.79
2022-10-05T10:55:04.713Z,99591.09
2022-10-05T10:57:42.662Z,99581.75
2022-10-05T11:00:28.912Z,99577.39
2022-10-05T11:03:12.120Z,99569.23
2022-10-05T11:06:10.338Z,99569.59
2022-10-05T11:09:00.055Z,99574.92
2022-10-05T11:12:12.688Z,99570.95
2022-10-05T11:15:32.904Z,99573.52
2022-10-05T11:18:01.067Z,99566.35
2022-10-05T11:21:00.099Z,99562.68
2022-10-05T11:24:09.914Z,99559.84
2022-10-05T11:26:40.716Z,99552.06
2022-10-05T11:29:28.456Z,99552.30
2022-10-05T11:32:28.071Z,99561.44
2022-10-05T11:34:59.148Z,99560.81
2022-10-05T11:38:03.957Z,99561.33
2022-10-05T11:40:47.844Z,99548.20
2022-10-05T11:43:25.500Z,99544.42
2022-10-05T11:45:57.128Z,99541.80
2022-10-05T11:49:07.278Z,99537.79
2022-10-05T11:51:38.485Z,99532.39
2022-10-05T11:54:06.672Z,99530.14
2022-10-05T11:56:42.766Z,99526.74
2022-10-05T11:59:27.894Z,99523.69
2022-10-05T12:02:04.722Z,99522.70
2022-10-05T12:04:38.667Z,99519.41
2022-10-05T12:07:33.261Z,99512.88
2022-10-05T12:10:23.742Z,99507.17
2022-10-05T12:13:33.398Z,99500.11
2022-10-05T12:16:10.727Z,99501.77
2022-10-05T12:18:51.538Z,99503.58
2022-10-05T12:21:45.446Z,99501.27
2022-10-05T12:25:14.860Z,99497.50
2022-10-05T12:27:50.924Z,99497.48
2022-10-05T12:30:59.196Z,99499.52
2022-10-05T12:33:39.187Z,99497.73
2022-10-05T12:36:31.859Z,99498.02
2022-10-05T12:39:41.951Z,99500.18
2022-10-05T12:42:41.959Z,99502.21
2022-10-05T12:45:31.599Z,99501.69
2022-10-05T12:48:02.324Z,99497.02
2022-10-05T12:50:43.232Z,99497.23
2022-10-05T12:53:28.890Z,99496.52
2022-10-05T12:56:07.952Z,99493.81
2022-10-05T12:58:57.692Z,99490.45
2022-10-05T13:02:09.174Z,99487.39
2022-10-05T13:05:11.493Z,99491.98
2022-10-05T13:08:00.761Z,99492.32
2022-10-05T13:11:01.180Z,99487.39
2022-10-05T13:13:49.423Z,99485.29
2022-10-05T13:16:42.914Z,99486.98
2022-10-05T13:19:25.384Z,99485.39
2022-10-05T13:22:05.242Z,99484.39
2022-10-05T13:25:00.111Z,99482.27
2022-10-05T13:27:37.037Z,99482.06
2022-10-05T13:30:25.615Z,99476.73
2022-10-05T13:33:08.329Z,99476.35
2022-10-05T13:35:36.407Z,99475.48
2022-10-05T13:38:23.185Z,99472.80
2022-10-05T13:41:21.906Z,99471.66
2022-10-05T13:43:52.677Z,99470.99
2022-10-05T13:46:30.321Z,99473.23
2022-10-05T13:49:16.285Z,99473.75
2022-10-05T13:52:02.688Z,99467.50
2022-10-05T13:54:57.398Z,99467.44
2022-10-05T13:57:58.124Z,99467.77
2022-10-05T14:00:27.484Z,99464.58
2022-10-05T14:02:58.023Z,99464.28
2022-10-05T14:05:29.923Z,99466.42
2022-10-05T14:07:58.832Z,99466.62
2022-10-05T14:10:39.493Z,99465.38
2022-10-05T14:13:28.978Z,99465.43
2022-10-05T14:16:04.764Z,99469.85
2022-10-05T14:18:38.525Z,99468.17
2022-10-05T14:21:13.177Z,99462.36
2022-10-05T14:23:42.332Z,99458.69
2022-10-05T14:26:36.166Z,99457.14
2022-10-05T14:29:19.151Z,99457.29
2022-10-05T14:32:15.289Z,99458.24
2022-10-05T14:34:55.028Z,99462.70
2022-10-05T14:37:26.311Z,99465.57
2022-10-05T14:40:03.441Z,99469.95
2022-10-05T14:42:47.071Z,99466.63
2022-10-05T14:45:26.176Z,99466.89
2022-10-05T14:48:10.044Z,99463.30
2022-10-05T14:50:52.925Z,99466.58
2022-10-05T14:53:26.236Z,99466.67
2022-10-05T14:56:29.149Z,99465.84
2022-10-05T14:59:01.288Z,99466.10
2022-10-05T15:01:33.907Z,99467.03
2022-10-05T15:04:43.638Z,99469.44
2022-10-05T15:08:56.281Z,99474.15
2022-10-05T15:16:22.431Z,99478.87
2022-10-05T15:24:30.117Z,99475.33
2022-10-05T15:28:43.623Z,99478.55
2022-10-05T15:32:37.166Z,99487.45
2022-10-05T15:41:43.184Z,99492.82
2022-10-05T15:52:39.567Z,99502.85
2022-10-05T16:02:58.031Z,99504.67
2022-10-05T16:06:11.092Z,99509.40
2022-10-05T16:09:05.043Z,99515.00
2022-10-05T16:12:21.998Z,99518.73
2022-10-05T16:15:59.177Z,99523.30
2022-10-05T16:19:30.103Z,99523.77
2022-10-05T16:22:50.577Z,99524.40
2022-10-05T16:25:36.871Z,99527.23
2022-10-05T16:28:50.571Z,99533.04
2022-10-05T16:31:55.796Z,99536.92
2022-10-05T17:09:29.018Z,99576.65
2022-10-05T17:12:14.046Z,99576.92
2022-10-05T17:15:10.787Z,99581.09
2022-10-05T17:18:03.580Z,99582.29
2022-10-05T17:20:47.610Z,99584.95
2022-10-05T17:23:56.788Z,99586.42
2022-10-05T17:27:11.104Z,99587.95
2022-10-05T17:29:55.894Z,99590.27
2022-10-05T17:32:36.338Z,99596.25
2022-10-05T17:35:58.984Z,99598.60
2022-10-05T17:38:41.119Z,99601.33
2022-10-05T17:41:30.390Z,99599.77
2022-10-05T17:48:18.629Z,99606.88
2022-10-05T17:51:10.467Z,99608.77
2022-10-05T17:54:04.845Z,99607.23
2022-10-05T17:57:18.969Z,99610.27
2022-10-05T18:00:00.555Z,99615.72
2022-10-05T18:02:43.084Z,99622.61
2022-10-05T18:05:14.026Z,99626.42
2022-10-05T18:07:55.203Z,99622.61
2022-10-05T18:10:30.072Z,99624.48
2022-10-05T18:13:04.330Z,99624.29
2022-10-05T18:15:48.757Z,99626.91
2022-10-05T18:18:54.821Z,99627.64
2022-10-05T18:21:24.770Z,99627.85
2022-10-05T18:23:53.218Z,99627.81
2022-10-05T18:26:59.722Z,99629.51
2022-10-05T18:30:02.733Z,99631.34
2022-10-05T18:32:52.644Z,99625.91
2022-10-05T18:35:39.715Z,99622.16
2022-10-05T18:38:33.413Z,99624.29
2022-10-05T18:41:22.840Z,99629.50
2022-10-05T18:44:04.421Z,99631.54
2022-10-05T18:46:54.625Z,99636.73
2022-10-05T18:49:49.734Z,99637.96
2022-10-05T18:52:37.288Z,99643.76
2022-10-05T18:55:35.126Z,99647.06
2022-10-05T18:59:02.555Z,99653.78
2022-10-05T19:01:43.039Z,99654.77
2022-10-05T19:13:22.852Z,99653.33
2022-10-05T19:15:58.415Z,99652.55
2022-10-05T19:18:44.897Z,99657.28
2022-10-05T19:21:13.114Z,99657.22
2022-10-05T19:24:16.458Z,99659.09
2022-10-05T19:27:08.007Z,99660.81
2022-10-05T19:30:02.361Z,99665.17
2022-10-05T19:32:43.875Z,99671.64
2022-10-05T19:35:12.318Z,99678.30
2022-10-05T19:38:11.747Z,99680.48
2022-10-05T19:41:02.742Z,99680.90
2022-10-05T19:43:39.189Z,99678.78
2022-10-05T19:46:17.679Z,99678.38
2022-10-05T19:48:53.253Z,99680.62
2022-10-05T19:51:29.768Z,99678.88
2022-10-05T19:54:02.196Z,99684.48
2022-10-05T19:56:37.238Z,99687.55
2022-10-05T19:59:20.340Z,99687.80
2022-10-05T20:01:52.271Z,99686.58
2022-10-05T20:04:37.650Z,99689.52
2022-10-05T20:07:06.800Z,99697.54
2022-10-05T20:09:58.350Z,99701.02
2022-10-05T20:12:51.294Z,99702.85
2022-10-05T20:15:41.106Z,99702.62
2022-10-05T20:19:02.258Z,99697.01
2022-10-05T20:21:47.584Z,99696.36
2022-10-05T20:24:23.842Z,99691.99
2022-10-05T20:27:27.616Z,99696.91
2022-10-05T20:29:55.779Z,99702.16
2022-10-05T20:32:26.420Z,99701.88
2022-10-05T20:34:59.299Z,99703.61
2022-10-05T20:37:28.141Z,99705.72
2022-10-05T20:39:56.210Z,99706.02
2022-10-05T20:42:25.645Z,99709.93
2022-10-05T20:44:56.912Z,99709.05
2022-10-05T20:47:26.497Z,99707.95
2022-10-05T20:49:54.988Z,99707.84
2022-10-05T20:52:23.493Z,99706.66
2022-10-05T20:54:59.025Z,99707.76
2022-10-05T20:57:28.318Z,99707.25
2022-10-05T20:59:56.583Z,99704.58
2022-10-05T21:02:25.128Z,99705.08
2022-10-05T21:04:57.166Z,99705.04
2022-10-05T21:07:25.932Z,99707.06
2022-10-05T21:09:56.502Z,99705.50
2022-10-05T21:12:25.996Z,99708.00
2022-10-05T21:14:54.285Z,99709.50
2022-10-05T21:17:22.363Z,99707.98
2022-10-05T21:19:53.136Z,99702.08
2022-10-05T21:22:21.977Z,99700.61
2022-10-05T21:24:50.161Z,99700.37
2022-10-05T21:27:18.736Z,99697.61
2022-10-05T21:29:46.909Z,99698.66
2022-10-05T21:32:15.797Z,99697.35
2022-10-05T21:34:43.946Z,99693.27
2022-10-05T21:37:12.112Z,99692.25
2022-10-05T21:39:40.388Z,99693.86
2022-10-05T21:42:08.646Z,99689.90
2022-10-05T21:44:41.080Z,99687.44
2022-10-05T21:47:12.603Z,99688.39
2022-10-05T21:49:41.857Z,99689.65
2022-10-05T21:52:18.182Z,99685.37
2022-10-05T21:54:54.787Z,99687.60
2022-10-05T21:57:25.967Z,99684.50
2022-10-05T21:59:54.296Z,99684.67
2022-10-05T22:02:33.289Z,99679.26
2022-10-05T22:05:04.613Z,99679.14
2022-10-05T22:07:38.601Z,99679.09
2022-10-05T22:10:09.815Z,99678.48
2022-10-05T22:12:46.555Z,99676.31
2022-10-05T22:15:16.895Z,99673.24
2022-10-05T22:17:47.955Z,99671.14
2022-10-05T22:20:21.765Z,99665.46
2022-10-05T22:22:54.141Z,99660.64
2022-10-05T22:25:25.180Z,99657.52
2022-10-05T22:28:05.183Z,99658.45
2022-10-05T22:30:37.055Z,99652.77
2022-10-05T22:33:09.703Z,99650.71
2022-10-05T22:35:40.825Z,99648.67
2022-10-05T22:38:11.629Z,99646.98
2022-10-05T22:40:42.411Z,99646.39
2022-10-05T22:43:13.782Z,99649.11
2022-10-05T22:45:44.863Z,99648.74
2022-10-05T22:48:16.215Z,99654.15
2022-10-05T22:50:50.173Z,99649.70
2022-10-05T22:53:36.479Z,99645.15
2022-10-05T22:56:13.039Z,99640.27
2022-10-05T22:58:44.709Z,99639.85
2022-10-05T23:01:18.152Z,99642.80
2022-10-05T23:03:49.066Z,99646.07
2022-10-05T23:06:20.765Z,99640.45
2022-10-05T23:08:52.751Z,99638.85
2022-10-05T23:11:27.219Z,99639.64
2022-10-05T23:14:00.049Z,99634.41
2022-10-05T23:16:51.985Z,99633.14
2022-10-05T23:19:23.935Z,99632.42
2022-10-05T23:21:54.984Z,99633.70
2022-10-05T23:24:25.974Z,99630.70
2022-10-05T23:26:57.301Z,99624.98
2022-10-05T23:29:28.899Z,99619.27
2022-10-05T23:31:59.992Z,99614.52
2022-10-05T23:34:31.177Z,99618.98
2022-10-05T23:37:02.105Z,99620.08
2022-10-05T23:39:32.910Z,99620.45
2022-10-05T23:42:04.145Z,99618.73
2022-10-05T23:44:35.546Z,99613.09
2022-10-05T23:47:06.302Z,99614.54
2022-10-05T23:49:37.605Z,99616.61
2022-10-05T23:52:08.488Z,99616.24
2022-10-05T23:54:39.665Z,99614.36
2022-10-05T23:57:10.929Z,99609.88
2022-10-05T23:59:39.353Z,99612.18
